createdAt,value
2019-03-27T00:00:09.476Z,5.00
2019-03-27T00:02:40.058Z,6.73
2019-03-27T00:05:09.280Z,5.77
2019-03-27T00:07:37.844Z,4.37
2019-03-27T00:10:08.204Z,4.33
2019-03-27T00:12:37.509Z,3.63
2019-03-27T00:15:13.248Z,5.90
2019-03-27T00:17:38.991Z,4.00
2019-03-27T00:20:09.031Z,4.80
2019-03-27T00:22:37.591Z,3.43
2019-03-27T00:25:09.521Z,2.63
2019-03-27T00:27:38.094Z,2.33
2019-03-27T00:30:08.060Z,4.77
2019-03-27T00:32:36.621Z,2.63
2019-03-27T00:35:08.479Z,5.10
2019-03-27T00:37:37.116Z,5.93
2019-03-27T00:40:06.264Z,4.87
2019-03-27T00:42:34.817Z,2.90
2019-03-27T00:45:04.382Z,4.80
2019-03-27T00:47:32.946Z,2.20
2019-03-27T00:50:01.550Z,3.97
2019-03-27T00:52:30.119Z,2.13
2019-03-27T00:54:58.699Z,2.40
2019-03-27T00:57:27.263Z,2.03
2019-03-27T00:59:55.850Z,2.23
2019-03-27T01:02:24.432Z,4.63
2019-03-27T01:04:53.121Z,2.37
2019-03-27T01:07:21.753Z,4.63
2019-03-27T01:09:50.265Z,3.23
2019-03-27T01:12:19.142Z,4.97
2019-03-27T01:14:47.734Z,3.53
2019-03-27T01:17:16.654Z,3.57
2019-03-27T01:19:45.267Z,2.20
2019-03-27T01:22:13.822Z,1.77
2019-03-27T01:24:42.780Z,2.73
2019-03-27T01:27:11.668Z,1.50
2019-03-27T01:29:40.221Z,3.23
2019-03-27T01:32:08.815Z,1.73
2019-03-27T01:34:37.380Z,1.90
2019-03-27T01:37:06.361Z,1.80
2019-03-27T01:39:35.210Z,2.20
2019-03-27T01:42:03.799Z,2.27
2019-03-27T01:44:32.375Z,2.40
2019-03-27T01:47:00.962Z,4.70
2019-03-27T01:49:29.528Z,2.83
2019-03-27T01:51:58.203Z,3.70
2019-03-27T01:54:26.773Z,3.30
2019-03-27T01:56:55.491Z,3.90
2019-03-27T01:59:24.062Z,3.57
2019-03-27T02:01:52.653Z,5.47
2019-03-27T02:04:21.234Z,3.97
2019-03-27T02:06:49.822Z,6.33
2019-03-27T02:09:18.390Z,5.00
2019-03-27T02:11:46.978Z,4.43
2019-03-27T02:14:15.547Z,5.10
2019-03-27T02:16:44.122Z,5.53
2019-03-27T02:19:12.692Z,5.87
2019-03-27T02:21:41.329Z,7.30
2019-03-27T02:24:09.893Z,6.47
2019-03-27T02:26:38.477Z,5.57
2019-03-27T02:29:07.108Z,6.43
2019-03-27T02:31:35.703Z,7.17
2019-03-27T02:34:04.249Z,8.43
2019-03-27T02:36:32.839Z,6.90
2019-03-27T02:39:01.411Z,7.13
2019-03-27T02:41:30.002Z,7.60
2019-03-27T02:43:59.038Z,7.83
2019-03-27T02:46:27.621Z,7.80
2019-03-27T02:48:56.195Z,7.50
2019-03-27T02:51:24.780Z,7.97
2019-03-27T02:53:53.343Z,7.87
2019-03-27T02:56:22.187Z,10.70
2019-03-27T02:58:50.791Z,10.23
2019-03-27T03:01:19.436Z,9.77
2019-03-27T03:03:48.064Z,9.93
2019-03-27T03:06:16.636Z,8.00
2019-03-27T03:08:45.211Z,7.77
2019-03-27T03:11:13.770Z,12.93
2019-03-27T03:13:42.369Z,9.67
2019-03-27T03:16:10.943Z,7.57
2019-03-27T03:18:39.563Z,8.43
2019-03-27T03:21:08.107Z,7.40
2019-03-27T03:23:36.694Z,7.87
2019-03-27T03:26:05.316Z,9.13
2019-03-27T03:28:33.889Z,7.47
2019-03-27T03:31:02.528Z,7.97
2019-03-27T03:33:31.231Z,8.23
2019-03-27T03:35:59.861Z,9.70
2019-03-27T03:38:28.446Z,9.27
2019-03-27T03:40:57.094Z,8.73
2019-03-27T03:43:25.684Z,7.97
2019-03-27T03:45:54.239Z,7.03
2019-03-27T03:48:22.826Z,8.27
2019-03-27T03:50:54.286Z,10.37
2019-03-27T03:53:23.321Z,7.30
2019-03-27T03:55:52.728Z,7.70
2019-03-27T03:58:24.447Z,9.13
2019-03-27T04:00:53.552Z,7.53
2019-03-27T04:03:25.683Z,8.70
2019-03-27T04:05:54.232Z,6.73
2019-03-27T04:08:22.833Z,7.67
2019-03-27T04:10:51.401Z,6.80
2019-03-27T04:13:20.007Z,7.70
2019-03-27T04:15:48.613Z,9.50
2019-03-27T04:18:17.210Z,8.67
2019-03-27T04:20:45.776Z,7.73
2019-03-27T04:23:14.359Z,7.90
2019-03-27T04:26:08.337Z,6.83
2019-03-27T04:28:13.473Z,8.90
2019-03-27T04:30:42.035Z,7.57
2019-03-27T04:33:10.617Z,7.53
2019-03-27T04:35:39.182Z,6.67
2019-03-27T04:38:07.766Z,14.63
2019-03-27T04:40:36.326Z,5.40
2019-03-27T04:43:04.922Z,6.57
2019-03-27T04:45:33.484Z,6.40
2019-03-27T04:48:02.090Z,5.70
2019-03-27T04:50:30.692Z,5.03
2019-03-27T04:52:59.277Z,6.27
2019-03-27T04:55:27.836Z,4.47
2019-03-27T04:57:56.426Z,6.33
2019-03-27T05:00:24.999Z,5.27
2019-03-27T05:02:53.587Z,10.07
2019-03-27T05:05:22.135Z,8.57
2019-03-27T05:07:50.738Z,10.53
2019-03-27T05:10:19.312Z,13.60
2019-03-27T05:12:47.907Z,9.67
2019-03-27T05:15:16.469Z,6.30
2019-03-27T05:17:51.996Z,11.00
2019-03-27T05:20:20.553Z,7.77
2019-03-27T05:22:49.140Z,9.07
2019-03-27T05:25:18.122Z,7.20
2019-03-27T05:27:46.702Z,11.87
2019-03-27T05:30:18.414Z,8.23
2019-03-27T05:32:47.355Z,14.73
2019-03-27T05:35:16.356Z,10.90
2019-03-27T05:37:44.924Z,18.47
2019-03-27T05:40:13.527Z,13.73
2019-03-27T05:42:42.108Z,16.13
2019-03-27T05:45:10.777Z,9.93
2019-03-27T05:47:39.343Z,13.53
2019-03-27T05:50:08.011Z,15.73
2019-03-27T05:52:36.981Z,15.00
2019-03-27T05:55:06.243Z,15.90
2019-03-27T05:57:34.817Z,13.37
2019-03-27T06:00:04.261Z,14.60
2019-03-27T06:02:33.176Z,15.50
2019-03-27T06:05:01.871Z,24.67
2019-03-27T06:07:30.430Z,15.73
2019-03-27T06:09:59.469Z,14.33
2019-03-27T06:12:28.027Z,16.77
2019-03-27T06:14:56.626Z,17.33
2019-03-27T06:17:25.224Z,14.33
2019-03-27T06:19:54.161Z,17.80
2019-03-27T06:22:22.892Z,26.43
2019-03-27T06:24:51.553Z,19.27
2019-03-27T06:27:20.107Z,12.50
2019-03-27T06:29:48.710Z,17.30
2019-03-27T06:32:17.650Z,16.20
2019-03-27T06:34:46.260Z,17.17
2019-03-27T06:37:14.830Z,15.07
2019-03-27T06:39:43.459Z,14.10
2019-03-27T06:42:12.540Z,13.83
2019-03-27T06:44:41.159Z,20.53
2019-03-27T06:47:10.106Z,17.83
2019-03-27T06:49:39.000Z,16.57
2019-03-27T06:52:07.905Z,14.17
2019-03-27T06:54:36.881Z,11.93
2019-03-27T06:57:05.468Z,13.20
2019-03-27T06:59:34.155Z,14.57
2019-03-27T07:02:02.763Z,13.00
2019-03-27T07:04:31.343Z,9.43
2019-03-27T07:06:59.958Z,12.90
2019-03-27T07:09:28.522Z,12.97
2019-03-27T07:11:57.129Z,12.23
2019-03-27T07:14:26.072Z,13.30
2019-03-27T07:16:54.965Z,15.30
2019-03-27T07:19:23.544Z,12.13
2019-03-27T07:21:52.133Z,7.97
2019-03-27T07:24:20.703Z,11.57
2019-03-27T07:26:49.305Z,9.50
2019-03-27T07:29:19.257Z,11.43
2019-03-27T07:31:47.976Z,7.10
2019-03-27T07:34:16.584Z,9.77
2019-03-27T07:36:45.491Z,12.43
2019-03-27T07:39:14.380Z,12.00
2019-03-27T07:41:43.290Z,5.97
2019-03-27T07:44:11.800Z,14.37
2019-03-27T07:46:40.380Z,9.23
2019-03-27T07:49:08.941Z,9.10
2019-03-27T07:51:37.528Z,9.63
2019-03-27T07:54:06.091Z,10.17
2019-03-27T07:56:34.679Z,9.07
2019-03-27T07:59:03.237Z,12.43
2019-03-27T08:01:31.852Z,19.03
2019-03-27T08:04:00.398Z,11.77
2019-03-27T08:06:28.996Z,13.77
2019-03-27T08:08:57.540Z,11.93
2019-03-27T08:11:26.159Z,9.30
2019-03-27T08:13:54.678Z,14.40
2019-03-27T08:16:23.279Z,13.13
2019-03-27T08:18:51.828Z,13.80
2019-03-27T08:21:20.422Z,12.57
2019-03-27T08:23:48.998Z,11.07
2019-03-27T08:26:17.634Z,11.60
2019-03-27T08:28:46.242Z,10.60
2019-03-27T08:31:14.811Z,14.70
2019-03-27T08:33:43.415Z,8.67
2019-03-27T08:36:11.972Z,10.67
2019-03-27T08:38:40.727Z,11.60
2019-03-27T08:41:09.602Z,11.00
2019-03-27T08:43:38.206Z,7.97
2019-03-27T08:46:06.856Z,12.20
2019-03-27T08:48:39.070Z,10.77
2019-03-27T08:51:06.365Z,8.80
2019-03-27T08:53:34.955Z,14.00
2019-03-27T08:56:03.600Z,18.87
2019-03-27T08:58:32.197Z,11.37
2019-03-27T09:01:00.812Z,12.70
2019-03-27T09:03:29.469Z,17.70
2019-03-27T09:05:58.044Z,12.27
2019-03-27T09:08:26.651Z,14.43
2019-03-27T09:10:55.195Z,14.17
2019-03-27T09:13:23.793Z,16.67
2019-03-27T09:15:52.377Z,10.30
2019-03-27T09:18:20.960Z,10.53
2019-03-27T09:20:49.514Z,11.80
2019-03-27T09:23:18.109Z,13.90
2019-03-27T09:25:46.686Z,12.53
2019-03-27T09:28:15.264Z,8.70
2019-03-27T09:30:43.833Z,11.17
2019-03-27T09:33:12.443Z,11.87
2019-03-27T09:35:41.028Z,12.23
2019-03-27T09:38:09.623Z,11.77
2019-03-27T09:40:38.263Z,11.53
2019-03-27T09:43:06.843Z,7.97
2019-03-27T09:45:35.415Z,14.23
2019-03-27T09:48:04.078Z,12.87
2019-03-27T09:50:32.731Z,11.53
2019-03-27T09:53:01.306Z,6.20
2019-03-27T09:55:29.953Z,11.17
2019-03-27T09:57:58.478Z,8.40
2019-03-27T10:00:48.007Z,12.87
2019-03-27T10:03:16.688Z,8.23
2019-03-27T10:05:45.259Z,14.40
2019-03-27T10:08:13.953Z,10.33
2019-03-27T10:10:42.539Z,8.90
2019-03-27T10:13:11.150Z,13.67
2019-03-27T10:15:39.708Z,4.43
2019-03-27T10:18:08.285Z,5.53
2019-03-27T10:20:36.882Z,5.73
2019-03-27T10:23:05.494Z,6.90
2019-03-27T10:25:34.114Z,8.67
2019-03-27T10:28:02.694Z,9.07
2019-03-27T10:30:31.280Z,12.73
2019-03-27T10:32:59.877Z,8.97
2019-03-27T10:35:28.450Z,8.30
2019-03-27T10:37:56.997Z,7.60
2019-03-27T10:40:25.580Z,6.87
2019-03-27T10:42:54.143Z,9.60
2019-03-27T10:45:22.715Z,13.77
2019-03-27T10:47:51.284Z,9.27
2019-03-27T10:50:19.953Z,8.53
2019-03-27T10:52:48.570Z,7.13
2019-03-27T10:55:17.225Z,11.10
2019-03-27T10:57:45.804Z,7.47
2019-03-27T11:00:14.561Z,5.97
2019-03-27T11:02:43.125Z,11.97
2019-03-27T11:05:12.256Z,11.13
2019-03-27T11:07:40.813Z,7.13
2019-03-27T11:10:09.466Z,7.07
2019-03-27T11:12:38.138Z,6.93
2019-03-27T11:15:11.641Z,8.03
2019-03-27T11:17:40.577Z,5.90
2019-03-27T11:20:09.596Z,7.50
2019-03-27T11:22:38.159Z,9.03
2019-03-27T11:25:07.788Z,8.27
2019-03-27T11:27:36.352Z,10.47
2019-03-27T11:30:06.824Z,5.97
2019-03-27T11:32:35.456Z,7.23
2019-03-27T11:35:04.579Z,7.00
2019-03-27T11:37:33.177Z,7.00
2019-03-27T11:40:02.522Z,8.80
2019-03-27T11:42:31.095Z,9.07
2019-03-27T11:44:59.703Z,7.43
2019-03-27T11:47:28.325Z,4.80
2019-03-27T11:49:56.909Z,8.30
2019-03-27T11:52:25.474Z,12.77
2019-03-27T11:54:54.073Z,5.43
2019-03-27T11:57:22.641Z,8.50
2019-03-27T11:59:54.061Z,4.87
2019-03-27T12:02:21.467Z,5.03
2019-03-27T12:04:50.065Z,5.97
2019-03-27T12:07:18.628Z,8.43
2019-03-27T12:09:47.223Z,10.67
2019-03-27T12:12:15.783Z,4.87
2019-03-27T12:14:44.384Z,7.67
2019-03-27T12:17:12.959Z,7.70
2019-03-27T12:19:41.527Z,3.63
2019-03-27T12:22:10.132Z,9.70
2019-03-27T12:24:38.677Z,9.93
2019-03-27T12:27:07.262Z,3.57
2019-03-27T12:29:35.842Z,5.27
2019-03-27T12:32:04.411Z,4.93
2019-03-27T12:34:32.990Z,7.10
2019-03-27T12:37:01.579Z,5.53
2019-03-27T12:39:30.148Z,3.07
2019-03-27T12:41:58.776Z,3.03
2019-03-27T12:44:27.332Z,3.07
2019-03-27T12:46:55.947Z,6.87
2019-03-27T12:49:24.544Z,2.90
2019-03-27T12:51:53.079Z,6.90
2019-03-27T12:54:21.650Z,6.60
2019-03-27T12:56:50.237Z,2.53
2019-03-27T12:59:18.805Z,2.73
2019-03-27T13:01:47.376Z,5.47
2019-03-27T13:04:15.937Z,4.83
2019-03-27T13:06:44.527Z,5.57
2019-03-27T13:09:13.149Z,4.50
2019-03-27T13:11:41.751Z,5.37
2019-03-27T13:14:10.627Z,8.90
2019-03-27T13:16:39.213Z,4.77
2019-03-27T13:19:07.787Z,2.70
2019-03-27T13:21:36.386Z,5.53
2019-03-27T13:24:05.016Z,4.50
2019-03-27T13:26:33.667Z,8.10
2019-03-27T13:29:02.221Z,5.27
2019-03-27T13:31:30.847Z,9.10
2019-03-27T13:33:59.716Z,4.07
2019-03-27T13:36:28.311Z,2.63
2019-03-27T13:38:56.883Z,2.23
2019-03-27T13:41:25.470Z,4.00
2019-03-27T13:43:54.039Z,2.30
2019-03-27T13:46:22.635Z,4.03
2019-03-27T13:48:51.217Z,1.60
2019-03-27T13:51:19.804Z,2.70
2019-03-27T13:53:48.369Z,2.40
2019-03-27T13:56:17.059Z,2.80
2019-03-27T13:58:45.618Z,3.23
2019-03-27T14:01:14.215Z,2.13
2019-03-27T14:03:42.778Z,3.07
2019-03-27T14:06:11.347Z,2.47
2019-03-27T14:08:39.947Z,3.87
2019-03-27T14:11:08.515Z,1.70
2019-03-27T14:13:37.126Z,3.93
2019-03-27T14:16:06.214Z,3.90
2019-03-27T14:18:34.797Z,2.53
2019-03-27T14:21:03.439Z,2.57
2019-03-27T14:23:32.029Z,3.20
2019-03-27T14:26:00.602Z,3.80
2019-03-27T14:28:29.194Z,3.40
2019-03-27T14:30:58.420Z,5.40
2019-03-27T14:33:27.277Z,7.67
2019-03-27T14:35:55.917Z,6.30
2019-03-27T14:38:24.620Z,4.77
2019-03-27T14:40:53.137Z,6.50
2019-03-27T14:43:22.047Z,6.17
2019-03-27T14:45:50.697Z,8.93
2019-03-27T14:48:19.286Z,6.97
2019-03-27T14:50:47.859Z,6.67
2019-03-27T14:53:16.457Z,6.17
2019-03-27T14:55:45.036Z,8.33
2019-03-27T14:58:13.606Z,6.00
2019-03-27T15:00:42.248Z,7.87
2019-03-27T15:03:10.927Z,7.63
2019-03-27T15:05:39.597Z,6.77
2019-03-27T15:08:08.188Z,3.97
2019-03-27T15:10:36.755Z,6.90
2019-03-27T15:13:05.430Z,5.70
2019-03-27T15:15:34.004Z,6.13
2019-03-27T15:18:02.611Z,4.43
2019-03-27T15:20:31.192Z,3.23
2019-03-27T15:22:59.835Z,5.13
2019-03-27T15:25:28.355Z,6.03
2019-03-27T15:27:56.963Z,3.80
2019-03-27T15:30:25.561Z,6.07
2019-03-27T15:32:54.172Z,7.60
2019-03-27T15:35:22.787Z,7.13
2019-03-27T15:37:51.390Z,4.60
2019-03-27T15:40:39.838Z,6.17
2019-03-27T15:43:08.526Z,6.90
2019-03-27T15:45:37.092Z,5.70
2019-03-27T15:48:05.779Z,6.00
2019-03-27T15:50:34.439Z,4.20
2019-03-27T15:53:03.087Z,3.57
2019-03-27T15:55:33.888Z,5.53
2019-03-27T15:58:02.765Z,6.00
2019-03-27T16:00:32.455Z,3.97
2019-03-27T16:03:03.117Z,5.30
2019-03-27T16:05:32.217Z,5.97
2019-03-27T16:08:02.498Z,4.60
2019-03-27T16:10:32.079Z,8.57
2019-03-27T16:13:00.628Z,6.37
2019-03-27T16:15:29.544Z,6.50
2019-03-27T16:17:58.189Z,5.47
2019-03-27T16:20:27.226Z,7.40
2019-03-27T16:22:55.787Z,4.80
2019-03-27T16:25:24.537Z,4.60
2019-03-27T16:27:53.254Z,7.33
2019-03-27T16:30:24.897Z,6.53
2019-03-27T16:32:54.100Z,6.10
2019-03-27T16:35:23.530Z,5.63
2019-03-27T16:37:52.096Z,6.50
2019-03-27T16:40:32.357Z,6.17
2019-03-27T16:43:01.280Z,6.53
2019-03-27T16:45:30.040Z,4.73
2019-03-27T16:47:58.913Z,4.37
2019-03-27T16:50:27.536Z,4.77
2019-03-27T16:53:03.478Z,5.47
2019-03-27T16:55:27.410Z,5.70
2019-03-27T16:57:56.476Z,7.00
2019-03-27T17:00:28.681Z,5.87
2019-03-27T17:03:01.166Z,5.27
2019-03-27T17:05:29.912Z,3.57
2019-03-27T17:07:58.590Z,4.70
2019-03-27T17:10:27.170Z,5.73
2019-03-27T17:12:55.852Z,5.23
2019-03-27T17:15:24.655Z,4.17
2019-03-27T17:17:53.222Z,4.97
2019-03-27T17:20:23.373Z,5.60
2019-03-27T17:22:53.579Z,6.30
2019-03-27T17:25:22.364Z,5.63
2019-03-27T17:27:50.920Z,5.60
2019-03-27T17:30:20.501Z,4.70
2019-03-27T17:32:49.142Z,7.97
2019-03-27T17:35:17.859Z,6.20
2019-03-27T17:37:46.458Z,4.90
2019-03-27T17:40:34.401Z,6.97
2019-03-27T17:43:02.977Z,5.50
2019-03-27T17:45:31.571Z,9.20
2019-03-27T17:48:00.137Z,7.97
2019-03-27T17:50:28.730Z,8.33
2019-03-27T17:52:57.302Z,8.10
2019-03-27T17:55:25.906Z,7.50
2019-03-27T17:57:54.817Z,9.67
2019-03-27T18:00:46.319Z,8.87
2019-03-27T18:03:15.226Z,5.03
2019-03-27T18:05:43.825Z,5.83
2019-03-27T18:08:12.393Z,8.93
2019-03-27T18:10:41.056Z,8.20
2019-03-27T18:13:09.698Z,10.67
2019-03-27T18:15:38.291Z,4.93
2019-03-27T18:18:06.880Z,5.07
2019-03-27T18:20:35.830Z,9.03
2019-03-27T18:23:04.665Z,9.00
2019-03-27T18:25:33.277Z,7.07
2019-03-27T18:28:02.144Z,6.60
2019-03-27T18:30:31.180Z,6.67
2019-03-27T18:32:59.786Z,7.17
2019-03-27T18:35:28.382Z,6.73
2019-03-27T18:37:57.113Z,6.83
2019-03-27T18:40:25.793Z,8.80
2019-03-27T18:42:54.730Z,5.17
2019-03-27T18:45:23.315Z,4.30
2019-03-27T18:47:51.918Z,5.67
2019-03-27T18:50:20.886Z,5.30
2019-03-27T18:52:49.463Z,4.37
2019-03-27T18:55:26.396Z,5.60
2019-03-27T18:57:59.385Z,9.40
2019-03-27T19:00:19.109Z,4.43
2019-03-27T19:02:47.745Z,5.20
2019-03-27T19:05:16.618Z,12.43
2019-03-27T19:07:45.206Z,7.80
2019-03-27T19:10:14.423Z,5.20
2019-03-27T19:12:43.019Z,4.20
2019-03-27T19:15:11.821Z,4.50
2019-03-27T19:17:40.425Z,5.47
2019-03-27T19:20:09.689Z,5.70
2019-03-27T19:22:38.308Z,7.90
2019-03-27T19:25:08.390Z,6.43
2019-03-27T19:27:37.476Z,6.27
2019-03-27T19:30:08.860Z,9.90
2019-03-27T19:32:37.942Z,3.73
2019-03-27T19:35:06.575Z,3.47
2019-03-27T19:37:35.198Z,5.63
2019-03-27T19:40:04.908Z,4.00
2019-03-27T19:42:33.481Z,4.27
2019-03-27T19:45:02.061Z,5.30
2019-03-27T19:47:30.650Z,4.13
2019-03-27T19:49:59.212Z,4.00
2019-03-27T19:52:27.823Z,3.53
2019-03-27T19:54:56.396Z,5.33
2019-03-27T19:57:25.076Z,5.97
2019-03-27T19:59:53.637Z,4.13
2019-03-27T20:02:22.233Z,3.97
2019-03-27T20:04:50.817Z,4.57
2019-03-27T20:07:19.734Z,5.80
2019-03-27T20:09:48.335Z,4.60
2019-03-27T20:12:16.925Z,5.17
2019-03-27T20:14:45.859Z,5.13
2019-03-27T20:17:14.448Z,4.70
2019-03-27T20:19:43.540Z,7.53
2019-03-27T20:22:12.133Z,5.17
2019-03-27T20:24:41.440Z,7.83
2019-03-27T20:27:10.105Z,7.07
2019-03-27T20:29:38.685Z,9.23
2019-03-27T20:32:07.369Z,9.03
2019-03-27T20:34:35.968Z,6.90
2019-03-27T20:37:04.636Z,7.07
2019-03-27T20:39:33.249Z,6.37
2019-03-27T20:42:01.786Z,8.93
2019-03-27T20:44:30.367Z,7.03
2019-03-27T20:46:58.963Z,9.27
2019-03-27T20:49:27.534Z,10.63
2019-03-27T20:51:56.150Z,14.90
2019-03-27T20:54:24.727Z,10.33
2019-03-27T20:56:53.324Z,12.47
2019-03-27T20:59:21.894Z,10.90
2019-03-27T21:01:50.572Z,11.00
2019-03-27T21:04:19.139Z,11.07
2019-03-27T21:06:47.811Z,11.20
2019-03-27T21:09:16.359Z,12.67
2019-03-27T21:11:45.021Z,15.07
2019-03-27T21:14:13.591Z,10.97
2019-03-27T21:16:42.189Z,14.37
2019-03-27T21:19:11.095Z,10.30
2019-03-27T21:21:41.969Z,10.10
2019-03-27T21:24:09.930Z,13.63
2019-03-27T21:26:38.506Z,11.20
2019-03-27T21:29:07.117Z,18.10
2019-03-27T21:31:35.692Z,11.67
2019-03-27T21:34:04.287Z,13.50
2019-03-27T21:36:32.964Z,11.47
2019-03-27T21:39:01.722Z,11.17
2019-03-27T21:41:30.296Z,10.93
2019-03-27T21:43:58.895Z,11.23
2019-03-27T21:46:27.463Z,13.23
2019-03-27T21:48:56.079Z,14.13
2019-03-27T21:51:24.654Z,14.90
2019-03-27T21:53:53.246Z,11.60
2019-03-27T21:56:21.830Z,12.43
2019-03-27T21:58:50.453Z,13.40
2019-03-27T22:01:19.021Z,14.53
2019-03-27T22:03:47.613Z,13.17
2019-03-27T22:06:16.258Z,11.93
2019-03-27T22:08:44.913Z,13.57
2019-03-27T22:11:13.824Z,12.70
2019-03-27T22:13:42.420Z,12.03
2019-03-27T22:16:10.994Z,12.53
2019-03-27T22:18:39.590Z,11.93
2019-03-27T22:21:08.167Z,11.43
2019-03-27T22:23:36.749Z,11.20
2019-03-27T22:26:05.334Z,10.47
2019-03-27T22:28:33.936Z,14.63
2019-03-27T22:31:02.811Z,11.53
2019-03-27T22:33:31.401Z,11.27
2019-03-27T22:35:59.981Z,12.37
2019-03-27T22:38:28.578Z,11.57
2019-03-27T22:40:57.480Z,11.37
2019-03-27T22:43:26.163Z,10.53
2019-03-27T22:45:54.746Z,11.27
2019-03-27T22:48:23.335Z,10.27
2019-03-27T22:50:51.911Z,11.83
2019-03-27T22:53:20.591Z,11.10
2019-03-27T22:55:50.541Z,10.67
2019-03-27T22:58:19.689Z,10.30
2019-03-27T23:00:52.130Z,10.63
2019-03-27T23:03:20.781Z,10.77
2019-03-27T23:05:49.428Z,11.27
2019-03-27T23:08:18.028Z,10.33
2019-03-27T23:10:46.616Z,10.77
2019-03-27T23:13:15.219Z,10.40
2019-03-27T23:15:43.792Z,11.37
2019-03-27T23:18:12.354Z,11.50
2019-03-27T23:20:40.942Z,11.50
2019-03-27T23:23:09.518Z,11.00
2019-03-27T23:25:38.137Z,11.60
2019-03-27T23:28:06.710Z,12.53
2019-03-27T23:30:35.319Z,12.87
2019-03-27T23:33:03.899Z,12.37
2019-03-27T23:35:32.576Z,12.53
2019-03-27T23:38:01.141Z,11.30
2019-03-27T23:40:29.741Z,10.80
2019-03-27T23:42:59.024Z,11.13
2019-03-27T23:45:27.666Z,10.93
2019-03-27T23:47:56.244Z,12.03
2019-03-27T23:50:44.188Z,12.10
2019-03-27T23:53:12.760Z,10.93
2019-03-27T23:55:41.341Z,11.20
2019-03-27T23:58:09.945Z,11.93
